UTDL

Khudzhand Airport

Khudzhand, Tajikistan
METAR UTDL 221700Z 24002MPS 9999 FEW066CB SCT086 26/10 Q1008 R26/CLRD70 NOSIG RMK QFE718/0958
Observed Flight Rules
Jun-22 @ 17:00 UTC (16 minutes ago) Visual Flight Rules
Wind Visibility Clouds
240° at 4 knots 10,000+ meters
  • Few at 6,600' AGL
  • Scattered at 8,600' AGL
Temperatures Readings
Current 26°C / 79°F
Dewpoint 10°C / 50°F
Humidity 37%
Altimeter 29.76" Hg
Pressure 1008 hPa
Elevation 442
METAR UTDL 221700Z 24002MPS 9999 FEW066CB SCT086 26/10 Q1008 R26/CLRD70 NOSIG RMK QFE718/0958
Observed Flight Rules
Jun-22 @ 17:00 UTC
(16 minutes ago)
VFR
Wind Visibility
240° at 4 knots 10,000+ meters
Clouds
  • Few at 6,600' AGL
  • Scattered at 8,600' AGL
Temperature Dewpoint
26°C / 79°F 10°C / 50°F
Humidity Altimeter Pressure
37% 29.76" Hg 1008 hPa